Mogincual, Mozambique
Current Conditions -  °F | °C
As of 8:00 AM on Monday 26 Jan 2015 (Local Time) from FQQL Reporting Station
Broken Clouds Broken Clouds  
Wind Chill: 82°   Ceiling: 10000
Heat Index: 89°   Visibility: 6mi
Dew Point: 75°   Wind: 2mph
Humidity: 79%   Direction: 100°E
Pressure: 29.91"   Gusts: NA
Location:  15.57°S, 40.4°E
Report Text: FQQL 260600Z 10002KT 9999 FEW020 BKN100 28/24 Q1013
Loading
Personal Weather Stations






























Interactive Weather Map New forecast layout! Learn more

10-Day Weather Forecast

Advertisements
Track Severe Weather on mobile